sensor_id;sensor_type;location;lat;lon;timestamp;pressure;altitude;pressure_sealevel;temperature;humidity
8253;BME280;61313;48.396;10.008;2023-08-07T00:01:41;96014.94;;;13.26;67.28
8253;BME280;61313;48.396;10.008;2023-08-07T00:04:06;96015.66;;;13.30;67.33
8253;BME280;61313;48.396;10.008;2023-08-07T00:06:31;96013.03;;;13.30;67.78
8253;BME280;61313;48.396;10.008;2023-08-07T00:08:57;96013.66;;;13.33;68.17
8253;BME280;61313;48.396;10.008;2023-08-07T00:11:22;96018.53;;;13.25;68.28
8253;BME280;61313;48.396;10.008;2023-08-07T00:13:48;96020.94;;;13.30;68.30
8253;BME280;61313;48.396;10.008;2023-08-07T00:16:13;96016.81;;;13.24;68.52
8253;BME280;61313;48.396;10.008;2023-08-07T00:18:38;96014.56;;;13.18;67.67
8253;BME280;61313;48.396;10.008;2023-08-07T00:21:04;96017.28;;;13.17;68.66
8253;BME280;61313;48.396;10.008;2023-08-07T00:23:29;96012.66;;;13.20;67.47
8253;BME280;61313;48.396;10.008;2023-08-07T00:25:54;96020.84;;;13.16;67.63
8253;BME280;61313;48.396;10.008;2023-08-07T00:28:20;96020.06;;;13.29;67.33
8253;BME280;61313;48.396;10.008;2023-08-07T00:30:45;96021.06;;;13.27;67.74
8253;BME280;61313;48.396;10.008;2023-08-07T00:33:10;96016.81;;;13.24;67.10
8253;BME280;61313;48.396;10.008;2023-08-07T00:35:36;96021.94;;;13.27;67.46
8253;BME280;61313;48.396;10.008;2023-08-07T00:38:01;96015.75;;;13.28;67.37
8253;BME280;61313;48.396;10.008;2023-08-07T00:40:27;96010.72;;;13.24;66.67
8253;BME280;61313;48.396;10.008;2023-08-07T00:42:52;96017.94;;;13.20;66.94
8253;BME280;61313;48.396;10.008;2023-08-07T00:45:17;96012.59;;;13.22;67.03
8253;BME280;61313;48.396;10.008;2023-08-07T00:47:43;96015.69;;;13.14;66.28
8253;BME280;61313;48.396;10.008;2023-08-07T00:50:10;96012.38;;;13.10;66.52
8253;BME280;61313;48.396;10.008;2023-08-07T00:52:35;96008.56;;;13.16;66.16
8253;BME280;61313;48.396;10.008;2023-08-07T00:55:01;96007.25;;;13.23;65.88
8253;BME280;61313;48.396;10.008;2023-08-07T00:57:28;96020.69;;;13.19;66.68
8253;BME280;61313;48.396;10.008;2023-08-07T00:59:53;96015.22;;;13.22;65.93
8253;BME280;61313;48.396;10.008;2023-08-07T01:02:19;96025.00;;;13.20;65.42
8253;BME280;61313;48.396;10.008;2023-08-07T01:04:44;96017.94;;;13.20;65.66
8253;BME280;61313;48.396;10.008;2023-08-07T01:07:10;96015.50;;;13.17;65.63
8253;BME280;61313;48.396;10.008;2023-08-07T01:09:35;96017.22;;;13.18;65.62
8253;BME280;61313;48.396;10.008;2023-08-07T01:14:39;96024.63;;;13.11;65.44
8253;BME280;61313;48.396;10.008;2023-08-07T01:17:15;96023.88;;;13.09;65.02
8253;BME280;61313;48.396;10.008;2023-08-07T01:19:41;96025.66;;;13.09;64.97
8253;BME280;61313;48.396;10.008;2023-08-07T01:22:11;96025.81;;;13.06;64.97
8253;BME280;61313;48.396;10.008;2023-08-07T01:24:37;96020.56;;;13.06;64.98
8253;BME280;61313;48.396;10.008;2023-08-07T01:32:41;96020.84;;;13.01;64.32
8253;BME280;61313;48.396;10.008;2023-08-07T01:35:11;96028.72;;;13.01;64.20
8253;BME280;61313;48.396;10.008;2023-08-07T01:37:42;96030.66;;;13.13;64.87
8253;BME280;61313;48.396;10.008;2023-08-07T01:40:08;96031.09;;;13.06;64.67
8253;BME280;61313;48.396;10.008;2023-08-07T01:42:36;96025.81;;;13.06;64.51
8253;BME280;61313;48.396;10.008;2023-08-07T01:45:02;96030.53;;;13.01;65.12
8253;BME280;61313;48.396;10.008;2023-08-07T01:47:27;96031.22;;;13.04;64.64
8253;BME280;61313;48.396;10.008;2023-08-07T01:49:53;96028.56;;;13.04;65.24
8253;BME280;61313;48.396;10.008;2023-08-07T01:52:19;96026.97;;;13.02;65.17
8253;BME280;61313;48.396;10.008;2023-08-07T01:54:45;96027.91;;;13.01;64.92
8253;BME280;61313;48.396;10.008;2023-08-07T01:57:10;96036.84;;;13.12;65.13
8253;BME280;61313;48.396;10.008;2023-08-07T01:59:36;96028.31;;;13.09;64.48
8253;BME280;61313;48.396;10.008;2023-08-07T02:02:01;96029.50;;;13.03;65.08
8253;BME280;61313;48.396;10.008;2023-08-07T02:04:27;96041.06;;;13.01;64.94
8253;BME280;61313;48.396;10.008;2023-08-07T02:06:52;96031.84;;;12.93;65.85
8253;BME280;61313;48.396;10.008;2023-08-07T02:09:17;96030.91;;;12.95;65.64
8253;BME280;61313;48.396;10.008;2023-08-07T02:11:43;96033.53;;;12.95;65.43
8253;BME280;61313;48.396;10.008;2023-08-07T02:14:09;96035.22;;;12.96;64.95
8253;BME280;61313;48.396;10.008;2023-08-07T02:16:35;96035.41;;;12.92;65.59
8253;BME280;61313;48.396;10.008;2023-08-07T02:19:01;96037.94;;;12.94;65.62
8253;BME280;61313;48.396;10.008;2023-08-07T02:21:26;96039.19;;;13.03;66.02
8253;BME280;61313;48.396;10.008;2023-08-07T02:23:52;96037.84;;;12.96;65.74
8253;BME280;61313;48.396;10.008;2023-08-07T02:26:17;96041.97;;;12.85;65.69
8253;BME280;61313;48.396;10.008;2023-08-07T02:28:42;96043.84;;;12.83;65.56
8253;BME280;61313;48.396;10.008;2023-08-07T02:31:08;96042.63;;;12.89;65.19
8253;BME280;61313;48.396;10.008;2023-08-07T02:33:33;96045.19;;;12.90;65.11
8253;BME280;61313;48.396;10.008;2023-08-07T02:35:58;96051.00;;;12.81;64.95
8253;BME280;61313;48.396;10.008;2023-08-07T02:38:25;96055.03;;;12.87;65.34
8253;BME280;61313;48.396;10.008;2023-08-07T02:40:50;96052.53;;;12.85;65.31
8253;BME280;61313;48.396;10.008;2023-08-07T02:43:16;96056.84;;;12.86;65.50
8253;BME280;61313;48.396;10.008;2023-08-07T02:45:41;96059.47;;;12.86;65.41
8253;BME280;61313;48.396;10.008;2023-08-07T02:48:06;96062.09;;;12.86;64.88
8253;BME280;61313;48.396;10.008;2023-08-07T02:50:32;96067.28;;;12.88;64.63
8253;BME280;61313;48.396;10.008;2023-08-07T02:53:00;96073.41;;;12.88;64.85
8253;BME280;61313;48.396;10.008;2023-08-07T02:55:26;96076.78;;;12.90;64.72
8253;BME280;61313;48.396;10.008;2023-08-07T02:57:51;96081.88;;;12.93;64.69
8253;BME280;61313;48.396;10.008;2023-08-07T03:00:17;96080.53;;;12.86;65.08
8253;BME280;61313;48.396;10.008;2023-08-07T03:02:42;96086.78;;;13.00;63.99
8253;BME280;61313;48.396;10.008;2023-08-07T03:05:08;96082.44;;;12.99;63.69
8253;BME280;61313;48.396;10.008;2023-08-07T03:07:33;96082.72;;;12.94;62.74
8253;BME280;61313;48.396;10.008;2023-08-07T03:09:59;96086.94;;;12.97;62.65
8253;BME280;61313;48.396;10.008;2023-08-07T03:12:25;96090.88;;;12.89;63.04
8253;BME280;61313;48.396;10.008;2023-08-07T03:14:51;96088.09;;;12.92;62.27
8253;BME280;61313;48.396;10.008;2023-08-07T03:17:16;96086.03;;;12.98;62.36
8253;BME280;61313;48.396;10.008;2023-08-07T03:19:43;96085.63;;;12.89;61.67
8253;BME280;61313;48.396;10.008;2023-08-07T03:22:08;96076.59;;;12.93;62.10
8253;BME280;61313;48.396;10.008;2023-08-07T03:24:34;96090.31;;;12.84;62.00
8253;BME280;61313;48.396;10.008;2023-08-07T03:26:59;96080.53;;;12.86;62.68
8253;BME280;61313;48.396;10.008;2023-08-07T03:29:25;96082.97;;;12.89;61.91
8253;BME280;61313;48.396;10.008;2023-08-07T03:31:50;96086.56;;;12.88;62.29
8253;BME280;61313;48.396;10.008;2023-08-07T03:34:15;96085.63;;;12.89;62.56
8253;BME280;61313;48.396;10.008;2023-08-07T03:36:41;96093.88;;;12.83;62.05
8253;BME280;61313;48.396;10.008;2023-08-07T03:39:06;96086.00;;;12.83;62.21
8253;BME280;61313;48.396;10.008;2023-08-07T03:41:32;96080.31;;;13.05;61.76
8253;BME280;61313;48.396;10.008;2023-08-07T03:43:57;96074.38;;;13.02;60.79
8253;BME280;61313;48.396;10.008;2023-08-07T03:46:22;96072.88;;;12.98;60.74
8253;BME280;61313;48.396;10.008;2023-08-07T03:48:48;96084.16;;;13.00;60.86
8253;BME280;61313;48.396;10.008;2023-08-07T03:51:13;96088.97;;;13.07;60.01
8253;BME280;61313;48.396;10.008;2023-08-07T03:53:41;96091.88;;;13.03;59.92
8253;BME280;61313;48.396;10.008;2023-08-07T03:56:07;96096.56;;;12.98;59.83
8253;BME280;61313;48.396;10.008;2023-08-07T03:58:32;96100.03;;;12.98;59.69
8253;BME280;61313;48.396;10.008;2023-08-07T04:00:57;96111.03;;;12.90;60.13
8253;BME280;61313;48.396;10.008;2023-08-07T04:03:23;96107.50;;;13.06;59.84
8253;BME280;61313;48.396;10.008;2023-08-07T04:05:52;96112.59;;;13.09;59.52
8253;BME280;61313;48.396;10.008;2023-08-07T04:08:17;96116.38;;;13.19;58.81
8253;BME280;61313;48.396;10.008;2023-08-07T04:10:42;96128.22;;;13.12;58.81
8253;BME280;61313;48.396;10.008;2023-08-07T04:13:08;96121.13;;;12.98;59.30
8253;BME280;61313;48.396;10.008;2023-08-07T04:15:33;96124.44;;;13.02;59.01
8253;BME280;61313;48.396;10.008;2023-08-07T04:17:58;96125.53;;;12.98;59.20
8253;BME280;61313;48.396;10.008;2023-08-07T04:20:24;96125.72;;;12.95;59.04
8253;BME280;61313;48.396;10.008;2023-08-07T04:22:49;96123.97;;;13.09;58.74
8253;BME280;61313;48.396;10.008;2023-08-07T04:25:15;96139.03;;;13.07;58.63
8253;BME280;61313;48.396;10.008;2023-08-07T04:27:40;96132.59;;;12.97;58.67
8253;BME280;61313;48.396;10.008;2023-08-07T04:30:06;96138.72;;;12.98;58.56
8253;BME280;61313;48.396;10.008;2023-08-07T04:32:31;96133.44;;;12.98;58.69
8253;BME280;61313;48.396;10.008;2023-08-07T04:34:57;96141.84;;;13.04;58.52
8253;BME280;61313;48.396;10.008;2023-08-07T04:37:23;96135.88;;;13.01;58.61
8253;BME280;61313;48.396;10.008;2023-08-07T04:39:48;96141.47;;;13.10;58.48
8253;BME280;61313;48.396;10.008;2023-08-07T04:42:13;96131.03;;;13.09;58.36
8253;BME280;61313;48.396;10.008;2023-08-07T04:44:39;96129.84;;;12.99;58.41
8253;BME280;61313;48.396;10.008;2023-08-07T04:47:04;96134.81;;;12.89;59.33
8253;BME280;61313;48.396;10.008;2023-08-07T04:49:30;96138.72;;;12.98;58.96
8253;BME280;61313;48.396;10.008;2023-08-07T04:51:55;96132.41;;;13.00;59.38
8253;BME280;61313;48.396;10.008;2023-08-07T04:54:21;96138.78;;;12.96;59.96
8253;BME280;61313;48.396;10.008;2023-08-07T04:56:46;96139.81;;;12.93;59.40
8253;BME280;61313;48.396;10.008;2023-08-07T04:59:12;96140.00;;;12.90;59.52
8253;BME280;61313;48.396;10.008;2023-08-07T05:01:37;96139.28;;;13.03;59.79
8253;BME280;61313;48.396;10.008;2023-08-07T05:04:04;96141.06;;;13.18;59.16
8253;BME280;61313;48.396;10.008;2023-08-07T05:06:30;96148.25;;;13.14;59.23
8253;BME280;61313;48.396;10.008;2023-08-07T05:08:56;96147.50;;;13.12;59.13
8253;BME280;61313;48.396;10.008;2023-08-07T05:11:21;96148.06;;;13.18;59.72
8253;BME280;61313;48.396;10.008;2023-08-07T05:13:46;96145.28;;;13.21;59.74
8253;BME280;61313;48.396;10.008;2023-08-07T05:16:12;96138.63;;;13.29;59.85
8253;BME280;61313;48.396;10.008;2023-08-07T05:18:37;96137.00;;;13.43;59.82
8253;BME280;61313;48.396;10.008;2023-08-07T05:21:03;96130.34;;;13.66;58.85
8253;BME280;61313;48.396;10.008;2023-08-07T05:23:28;96134.66;;;14.24;57.71
8253;BME280;61313;48.396;10.008;2023-08-07T05:25:53;96139.63;;;14.29;57.13
8253;BME280;61313;48.396;10.008;2023-08-07T05:28:19;96148.03;;;14.35;57.10
8253;BME280;61313;48.396;10.008;2023-08-07T05:30:44;96152.69;;;14.03;57.63
8253;BME280;61313;48.396;10.008;2023-08-07T05:33:09;96155.50;;;14.14;56.97
8253;BME280;61313;48.396;10.008;2023-08-07T05:35:37;96145.78;;;14.29;56.99
8253;BME280;61313;48.396;10.008;2023-08-07T05:38:02;96160.31;;;14.22;56.92
8253;BME280;61313;48.396;10.008;2023-08-07T05:40:28;96162.19;;;14.20;57.36
8253;BME280;61313;48.396;10.008;2023-08-07T05:42:55;96163.56;;;14.40;56.16
8253;BME280;61313;48.396;10.008;2023-08-07T05:45:20;96172.34;;;14.26;57.12
8253;BME280;61313;48.396;10.008;2023-08-07T05:47:45;96170.47;;;14.28;57.04
8253;BME280;61313;48.396;10.008;2023-08-07T05:50:11;96179.72;;;14.21;57.73
8253;BME280;61313;48.396;10.008;2023-08-07T05:52:36;96170.09;;;14.34;57.11
8253;BME280;61313;48.396;10.008;2023-08-07T05:55:03;96175.44;;;14.47;56.92
8253;BME280;61313;48.396;10.008;2023-08-07T05:57:28;96182.44;;;14.48;57.16
8253;BME280;61313;48.396;10.008;2023-08-07T05:59:54;96176.19;;;14.49;56.88
8253;BME280;61313;48.396;10.008;2023-08-07T06:02:19;96185.16;;;14.47;57.06
8253;BME280;61313;48.396;10.008;2023-08-07T06:04:44;96181.78;;;14.45;57.28
8253;BME280;61313;48.396;10.008;2023-08-07T06:07:10;96183.28;;;14.63;56.87
8253;BME280;61313;48.396;10.008;2023-08-07T06:09:36;96182.72;;;14.72;56.82
8253;BME280;61313;48.396;10.008;2023-08-07T06:12:01;96192.72;;;14.94;55.93
8253;BME280;61313;48.396;10.008;2023-08-07T06:14:27;96193.97;;;15.16;55.86
8253;BME280;61313;48.396;10.008;2023-08-07T06:16:53;96201.97;;;15.01;56.00
8253;BME280;61313;48.396;10.008;2023-08-07T06:19:19;96197.97;;;15.09;55.25
8253;BME280;61313;48.396;10.008;2023-08-07T06:21:47;96205.09;;;14.94;55.62
8253;BME280;61313;48.396;10.008;2023-08-07T06:24:12;96205.72;;;14.97;55.76
8253;BME280;61313;48.396;10.008;2023-08-07T06:26:38;96208.38;;;14.97;56.14
8253;BME280;61313;48.396;10.008;2023-08-07T06:29:03;96207.06;;;14.90;56.06
8253;BME280;61313;48.396;10.008;2023-08-07T06:31:30;96204.13;;;14.95;56.15
8253;BME280;61313;48.396;10.008;2023-08-07T06:33:56;96200.31;;;14.86;56.52
8253;BME280;61313;48.396;10.008;2023-08-07T06:36:21;96202.16;;;14.98;55.04
8253;BME280;61313;48.396;10.008;2023-08-07T06:38:46;96202.00;;;14.87;55.15
8253;BME280;61313;48.396;10.008;2023-08-07T06:41:12;96198.97;;;14.93;54.33
8253;BME280;61313;48.396;10.008;2023-08-07T06:43:38;96198.25;;;15.04;52.89
8253;BME280;61313;48.396;10.008;2023-08-07T06:46:03;96205.41;;;14.89;54.56
8253;BME280;61313;48.396;10.008;2023-08-07T06:48:28;96201.38;;;14.84;55.57
8253;BME280;61313;48.396;10.008;2023-08-07T06:50:54;96201.25;;;14.85;55.15
8253;BME280;61313;48.396;10.008;2023-08-07T06:53:19;96207.91;;;14.64;55.73
8253;BME280;61313;48.396;10.008;2023-08-07T06:55:45;96207.66;;;14.81;54.98
8253;BME280;61313;48.396;10.008;2023-08-07T06:58:11;96225.00;;;14.58;55.99
8253;BME280;61313;48.396;10.008;2023-08-07T07:00:37;96222.06;;;14.63;56.40
8253;BME280;61313;48.396;10.008;2023-08-07T07:03:03;96222.22;;;14.59;56.75
8253;BME280;61313;48.396;10.008;2023-08-07T07:05:29;96214.78;;;14.66;57.06
8253;BME280;61313;48.396;10.008;2023-08-07T07:07:55;96220.50;;;14.87;55.87
8253;BME280;61313;48.396;10.008;2023-08-07T07:10:21;96225.53;;;15.04;55.10
8253;BME280;61313;48.396;10.008;2023-08-07T07:12:46;96220.88;;;14.95;55.36
8253;BME280;61313;48.396;10.008;2023-08-07T07:15:12;96226.63;;;14.88;55.39
8253;BME280;61313;48.396;10.008;2023-08-07T07:17:38;96223.66;;;15.07;55.23
8253;BME280;61313;48.396;10.008;2023-08-07T07:20:04;96219.69;;;14.99;54.59
8253;BME280;61313;48.396;10.008;2023-08-07T07:22:29;96231.88;;;15.02;54.56
8253;BME280;61313;48.396;10.008;2023-08-07T07:24:55;96228.16;;;15.19;54.42
8253;BME280;61313;48.396;10.008;2023-08-07T07:27:20;96238.44;;;15.09;54.43
8253;BME280;61313;48.396;10.008;2023-08-07T07:29:47;96235.97;;;14.93;54.30
8253;BME280;61313;48.396;10.008;2023-08-07T07:32:13;96251.03;;;15.06;54.34
8253;BME280;61313;48.396;10.008;2023-08-07T07:34:38;96244.25;;;15.01;54.59
8253;BME280;61313;48.396;10.008;2023-08-07T07:37:04;96242.56;;;15.00;54.27
8253;BME280;61313;48.396;10.008;2023-08-07T07:39:29;96241.97;;;15.10;54.17
8253;BME280;61313;48.396;10.008;2023-08-07T07:41:55;96238.09;;;15.28;54.08
8253;BME280;61313;48.396;10.008;2023-08-07T07:44:20;96237.72;;;15.07;54.21
8253;BME280;61313;48.396;10.008;2023-08-07T07:46:46;96240.56;;;15.31;53.93
8253;BME280;61313;48.396;10.008;2023-08-07T07:49:11;96245.28;;;15.80;53.24
8253;BME280;61313;48.396;10.008;2023-08-07T07:51:37;96242.78;;;16.17;51.26
8253;BME280;61313;48.396;10.008;2023-08-07T07:54:02;96232.63;;;16.11;50.62
8253;BME280;61313;48.396;10.008;2023-08-07T07:56:28;96247.75;;;16.22;50.48
8253;BME280;61313;48.396;10.008;2023-08-07T07:58:53;96249.97;;;16.02;51.28
8253;BME280;61313;48.396;10.008;2023-08-07T08:01:19;96240.00;;;15.93;52.04
8253;BME280;61313;48.396;10.008;2023-08-07T08:03:44;96244.91;;;15.99;52.53
8253;BME280;61313;48.396;10.008;2023-08-07T08:06:13;96249.75;;;16.05;51.87
8253;BME280;61313;48.396;10.008;2023-08-07T08:08:38;96248.03;;;15.92;51.47
8253;BME280;61313;48.396;10.008;2023-08-07T08:11:04;96252.94;;;16.11;51.19
8253;BME280;61313;48.396;10.008;2023-08-07T08:13:29;96253.78;;;16.49;50.61
8253;BME280;61313;48.396;10.008;2023-08-07T08:15:55;96261.06;;;16.97;49.74
8253;BME280;61313;48.396;10.008;2023-08-07T08:18:20;96259.69;;;16.91;49.82
8253;BME280;61313;48.396;10.008;2023-08-07T08:20:46;96254.41;;;16.91;49.29
8253;BME280;61313;48.396;10.008;2023-08-07T08:23:11;96257.97;;;17.03;48.54
8253;BME280;61313;48.396;10.008;2023-08-07T08:25:37;96265.78;;;17.05;48.26
8253;BME280;61313;48.396;10.008;2023-08-07T08:28:02;96253.84;;;16.99;48.27
8253;BME280;61313;48.396;10.008;2023-08-07T08:30:28;96256.31;;;16.89;48.53
8253;BME280;61313;48.396;10.008;2023-08-07T08:32:53;96253.69;;;17.13;48.05
8253;BME280;61313;48.396;10.008;2023-08-07T08:35:19;96252.66;;;17.03;48.62
8253;BME280;61313;48.396;10.008;2023-08-07T08:37:44;96254.69;;;17.00;48.71
8253;BME280;61313;48.396;10.008;2023-08-07T08:40:10;96250.28;;;17.11;48.37
8253;BME280;61313;48.396;10.008;2023-08-07T08:42:39;96252.69;;;17.27;47.50
8253;BME280;61313;48.396;10.008;2023-08-07T08:45:09;96244.75;;;17.14;47.75
8253;BME280;61313;48.396;10.008;2023-08-07T08:47:36;96254.63;;;17.12;48.33
8253;BME280;61313;48.396;10.008;2023-08-07T08:50:07;96254.25;;;17.06;47.24
8253;BME280;61313;48.396;10.008;2023-08-07T08:52:33;96259.75;;;17.03;46.67
8253;BME280;61313;48.396;10.008;2023-08-07T08:55:01;96252.56;;;17.29;45.90
8253;BME280;61313;48.396;10.008;2023-08-07T08:57:27;96246.91;;;17.33;45.99
8253;BME280;61313;48.396;10.008;2023-08-07T08:59:53;96243.44;;;17.33;45.76
8253;BME280;61313;48.396;10.008;2023-08-07T09:02:18;96256.50;;;16.99;46.67
8253;BME280;61313;48.396;10.008;2023-08-07T09:04:45;96253.84;;;16.99;46.46
8253;BME280;61313;48.396;10.008;2023-08-07T09:07:13;96250.28;;;17.11;47.05
8253;BME280;61313;48.396;10.008;2023-08-07T09:09:38;96255.16;;;17.18;47.03
8253;BME280;61313;48.396;10.008;2023-08-07T09:12:06;96242.91;;;17.28;46.44
8253;BME280;61313;48.396;10.008;2023-08-07T09:14:34;96242.34;;;17.35;44.88
8253;BME280;61313;48.396;10.008;2023-08-07T09:17:03;96250.44;;;17.34;44.55
8253;BME280;61313;48.396;10.008;2023-08-07T09:19:28;96234.72;;;17.31;43.49
8253;BME280;61313;48.396;10.008;2023-08-07T09:21:54;96232.81;;;17.33;43.20
8253;BME280;61313;48.396;10.008;2023-08-07T09:24:19;96238.78;;;17.48;43.28
8253;BME280;61313;48.396;10.008;2023-08-07T09:26:47;96243.59;;;17.19;43.04
8253;BME280;61313;48.396;10.008;2023-08-07T09:29:13;96242.69;;;17.31;42.70
8253;BME280;61313;48.396;10.008;2023-08-07T09:31:39;96235.03;;;17.39;42.93
8253;BME280;61313;48.396;10.008;2023-08-07T09:34:04;96227.16;;;17.38;43.27
8253;BME280;61313;48.396;10.008;2023-08-07T09:36:31;96233.94;;;17.42;42.68
8253;BME280;61313;48.396;10.008;2023-08-07T09:39:00;96233.47;;;17.48;42.31
8253;BME280;61313;48.396;10.008;2023-08-07T09:41:27;96232.44;;;17.50;41.18
8253;BME280;61313;48.396;10.008;2023-08-07T09:43:54;96237.25;;;17.56;41.04
8253;BME280;61313;48.396;10.008;2023-08-07T09:46:19;96238.44;;;17.52;41.72
8253;BME280;61313;48.396;10.008;2023-08-07T09:48:44;96233.81;;;17.43;42.57
8253;BME280;61313;48.396;10.008;2023-08-07T09:51:10;96236.25;;;17.46;43.00
8253;BME280;61313;48.396;10.008;2023-08-07T09:53:36;96237.28;;;17.32;42.86
8253;BME280;61313;48.396;10.008;2023-08-07T09:56:02;96252.97;;;17.35;43.08
8253;BME280;61313;48.396;10.008;2023-08-07T09:58:28;96249.75;;;17.43;42.48
8253;BME280;61313;48.396;10.008;2023-08-07T10:00:54;96237.84;;;17.49;40.92
8253;BME280;61313;48.396;10.008;2023-08-07T10:03:21;96249.53;;;17.46;40.79
8253;BME280;61313;48.396;10.008;2023-08-07T10:05:46;96240.91;;;17.67;40.19
8253;BME280;61313;48.396;10.008;2023-08-07T10:08:12;96249.63;;;17.69;40.38
8253;BME280;61313;48.396;10.008;2023-08-07T10:10:38;96239.81;;;17.82;39.89
8253;BME280;61313;48.396;10.008;2023-08-07T10:13:04;96241.28;;;17.86;39.24
8253;BME280;61313;48.396;10.008;2023-08-07T10:15:33;96245.66;;;17.98;39.32
8253;BME280;61313;48.396;10.008;2023-08-07T10:18:02;96243.03;;;18.21;39.56
8253;BME280;61313;48.396;10.008;2023-08-07T10:20:28;96241.38;;;18.31;38.68
8253;BME280;61313;48.396;10.008;2023-08-07T10:23:00;96252.94;;;18.30;38.59
8253;BME280;61313;48.396;10.008;2023-08-07T10:25:27;96266.84;;;18.34;38.86
8253;BME280;61313;48.396;10.008;2023-08-07T10:27:55;96257.06;;;18.34;39.70
8253;BME280;61313;48.396;10.008;2023-08-07T10:30:22;96269.16;;;18.38;39.24
8253;BME280;61313;48.396;10.008;2023-08-07T10:32:49;96267.56;;;18.47;38.44
8253;BME280;61313;48.396;10.008;2023-08-07T10:35:32;96259.47;;;18.26;39.04
8253;BME280;61313;48.396;10.008;2023-08-07T10:38:09;96269.63;;;18.32;38.81
8253;BME280;61313;48.396;10.008;2023-08-07T10:43:23;96261.66;;;18.32;38.50
8253;BME280;61313;48.396;10.008;2023-08-07T10:45:49;96259.97;;;18.54;38.38
8253;BME280;61313;48.396;10.008;2023-08-07T10:48:18;96262.41;;;18.46;37.90
8253;BME280;61313;48.396;10.008;2023-08-07T10:51:03;96265.16;;;18.44;37.38
8253;BME280;61313;48.396;10.008;2023-08-07T10:56:02;96260.25;;;18.73;38.26
8253;BME280;61313;48.396;10.008;2023-08-07T10:58:32;96247.19;;;18.70;39.36
8253;BME280;61313;48.396;10.008;2023-08-07T11:04:00;96267.75;;;18.91;38.34
8253;BME280;61313;48.396;10.008;2023-08-07T11:06:32;96260.75;;;18.78;38.77
8253;BME280;61313;48.396;10.008;2023-08-07T11:09:03;96263.59;;;18.75;38.47
8253;BME280;61313;48.396;10.008;2023-08-07T11:11:37;96265.78;;;18.70;38.49
8253;BME280;61313;48.396;10.008;2023-08-07T11:14:16;96269.19;;;18.72;38.24
8253;BME280;61313;48.396;10.008;2023-08-07T11:16:43;96261.69;;;18.66;38.60
8253;BME280;61313;48.396;10.008;2023-08-07T11:19:09;96257.75;;;18.83;38.71
8253;BME280;61313;48.396;10.008;2023-08-07T11:21:36;96265.34;;;18.88;37.50
8253;BME280;61313;48.396;10.008;2023-08-07T11:24:02;96258.19;;;19.11;37.98
8253;BME280;61313;48.396;10.008;2023-08-07T11:26:28;96267.25;;;19.08;37.35
8253;BME280;61313;48.396;10.008;2023-08-07T11:28:55;96267.13;;;18.76;36.87
8253;BME280;61313;48.396;10.008;2023-08-07T11:31:21;96273.41;;;18.75;36.92
8253;BME280;61313;48.396;10.008;2023-08-07T11:33:54;96278.66;;;18.88;36.80
8253;BME280;61313;48.396;10.008;2023-08-07T11:36:20;96270.53;;;18.78;36.85
8253;BME280;61313;48.396;10.008;2023-08-07T11:38:45;96269.47;;;18.80;36.85
8253;BME280;61313;48.396;10.008;2023-08-07T11:41:12;96276.06;;;18.75;37.30
8253;BME280;61313;48.396;10.008;2023-08-07T11:43:38;96282.88;;;18.79;37.23
8253;BME280;61313;48.396;10.008;2023-08-07T11:46:07;96272.44;;;18.65;37.76
8253;BME280;61313;48.396;10.008;2023-08-07T11:48:34;96282.13;;;18.77;37.56
8253;BME280;61313;48.396;10.008;2023-08-07T11:51:01;96274.97;;;18.55;37.61
8253;BME280;61313;48.396;10.008;2023-08-07T11:53:29;96278.13;;;18.60;37.91
8253;BME280;61313;48.396;10.008;2023-08-07T11:56:06;96296.75;;;18.71;37.77
8253;BME280;61313;48.396;10.008;2023-08-07T11:58:39;96293.94;;;18.50;37.78
8253;BME280;61313;48.396;10.008;2023-08-07T12:01:12;96283.09;;;18.76;37.08
8253;BME280;61313;48.396;10.008;2023-08-07T12:03:41;96298.94;;;18.77;36.85
8253;BME280;61313;48.396;10.008;2023-08-07T12:06:08;96289.13;;;18.67;36.50
8253;BME280;61313;48.396;10.008;2023-08-07T12:08:41;96301.19;;;18.48;35.73
8253;BME280;61313;48.396;10.008;2023-08-07T12:11:10;96295.41;;;18.54;35.33
8253;BME280;61313;48.396;10.008;2023-08-07T12:13:41;96290.81;;;18.68;35.33
8253;BME280;61313;48.396;10.008;2023-08-07T12:16:07;96303.28;;;19.12;35.21
8253;BME280;61313;48.396;10.008;2023-08-07T12:18:46;96314.66;;;19.25;35.23
8253;BME280;61313;48.396;10.008;2023-08-07T12:21:14;96309.31;;;19.25;34.88
8253;BME280;61313;48.396;10.008;2023-08-07T12:23:40;96310.06;;;19.05;35.22
8253;BME280;61313;48.396;10.008;2023-08-07T12:26:05;96307.03;;;18.87;36.15
8253;BME280;61313;48.396;10.008;2023-08-07T12:28:32;96310.78;;;18.85;36.52
8253;BME280;61313;48.396;10.008;2023-08-07T12:30:58;96324.63;;;18.66;37.90
8253;BME280;61313;48.396;10.008;2023-08-07T12:33:23;96336.31;;;18.52;38.58
8253;BME280;61313;48.396;10.008;2023-08-07T12:35:48;96336.16;;;18.31;38.16
8253;BME280;61313;48.396;10.008;2023-08-07T12:38:14;96345.72;;;18.09;37.98
8253;BME280;61313;48.396;10.008;2023-08-07T12:40:40;96342.91;;;17.99;38.76
8253;BME280;61313;48.396;10.008;2023-08-07T12:43:06;96336.31;;;18.05;38.84
8253;BME280;61313;48.396;10.008;2023-08-07T12:45:32;96335.28;;;18.19;38.87
8253;BME280;61313;48.396;10.008;2023-08-07T12:47:58;96338.66;;;18.21;38.37
8253;BME280;61313;48.396;10.008;2023-08-07T12:50:23;96339.88;;;18.28;38.70
8253;BME280;61313;48.396;10.008;2023-08-07T12:52:49;96350.69;;;18.03;39.40
8253;BME280;61313;48.396;10.008;2023-08-07T12:55:14;96355.13;;;18.02;39.67
8253;BME280;61313;48.396;10.008;2023-08-07T12:57:41;96350.97;;;17.87;39.60
8253;BME280;61313;48.396;10.008;2023-08-07T13:00:08;96358.94;;;17.87;39.34
8253;BME280;61313;48.396;10.008;2023-08-07T13:02:36;96359.81;;;17.98;39.53
8253;BME280;61313;48.396;10.008;2023-08-07T13:05:02;96364.00;;;17.90;39.27
8253;BME280;61313;48.396;10.008;2023-08-07T13:07:27;96361.06;;;17.82;40.02
8253;BME280;61313;48.396;10.008;2023-08-07T13:09:53;96357.00;;;17.89;39.55
8253;BME280;61313;48.396;10.008;2023-08-07T13:12:20;96357.59;;;17.81;40.03